createdAt,value
2022-11-07T00:01:46.672Z,11.00
2022-11-07T00:04:14.108Z,11.00
2022-11-07T00:06:41.619Z,11.00
2022-11-07T00:09:08.632Z,11.00
2022-11-07T00:11:35.790Z,11.00
2022-11-07T00:14:02.998Z,11.10
2022-11-07T00:16:30.677Z,11.10
2022-11-07T00:18:57.710Z,11.10
2022-11-07T00:21:24.791Z,11.10
2022-11-07T00:23:51.732Z,11.10
2022-11-07T00:26:18.825Z,11.10
2022-11-07T00:28:46.601Z,11.10
2022-11-07T00:31:15.393Z,11.10
2022-11-07T00:33:43.785Z,11.10
2022-11-07T00:36:17.963Z,11.10
2022-11-07T00:38:45.247Z,11.10
2022-11-07T00:41:12.333Z,11.00
2022-11-07T00:43:39.382Z,11.00
2022-11-07T00:46:07.887Z,10.90
2022-11-07T00:48:36.953Z,10.90
2022-11-07T00:51:11.271Z,10.80
2022-11-07T00:53:38.652Z,10.80
2022-11-07T00:56:11.439Z,10.70
2022-11-07T00:58:38.696Z,10.70
2022-11-07T01:01:11.339Z,10.60
2022-11-07T01:03:57.101Z,10.50
2022-11-07T01:06:24.469Z,10.50
2022-11-07T01:08:53.560Z,10.40
2022-11-07T01:11:21.178Z,10.40
2022-11-07T01:13:48.350Z,10.30
2022-11-07T01:16:15.375Z,10.30
2022-11-07T01:18:43.070Z,10.30
2022-11-07T01:21:16.117Z,10.30
2022-11-07T01:23:43.514Z,10.20
2022-11-07T01:26:12.346Z,10.20
2022-11-07T01:28:40.192Z,10.10
2022-11-07T01:31:09.655Z,10.10
2022-11-07T01:33:37.866Z,10.10
2022-11-07T01:36:08.847Z,10.00
2022-11-07T01:38:39.407Z,10.00
2022-11-07T01:41:22.916Z,10.00
2022-11-07T01:43:57.911Z,9.90
2022-11-07T01:46:47.982Z,9.90
2022-11-07T01:49:36.271Z,9.90
2022-11-07T01:52:21.148Z,9.90
2022-11-07T01:55:09.379Z,9.80
2022-11-07T01:57:41.158Z,9.80
2022-11-07T02:00:12.306Z,9.80
2022-11-07T02:02:40.712Z,9.80
2022-11-07T02:05:09.399Z,9.70
2022-11-07T02:07:38.372Z,9.70
2022-11-07T02:10:06.394Z,9.70
2022-11-07T02:12:33.583Z,9.60
2022-11-07T02:15:01.654Z,9.60
2022-11-07T02:17:29.235Z,9.60
2022-11-07T02:19:56.791Z,9.60
2022-11-07T02:22:42.540Z,9.60
2022-11-07T02:25:13.366Z,9.50
2022-11-07T02:27:42.420Z,9.50
2022-11-07T02:30:12.189Z,9.50
2022-11-07T02:32:39.874Z,9.50
2022-11-07T02:35:39.027Z,9.50
2022-11-07T02:38:26.423Z,9.50
2022-11-07T02:41:01.759Z,9.50
2022-11-07T02:43:31.582Z,9.40
2022-11-07T02:46:00.868Z,9.40
2022-11-07T02:48:33.560Z,9.40
2022-11-07T02:51:00.551Z,9.40
2022-11-07T02:53:27.588Z,9.40
2022-11-07T02:55:54.657Z,9.40
2022-11-07T02:58:21.638Z,9.40
2022-11-07T03:00:48.643Z,9.30
2022-11-07T03:03:16.498Z,9.30
2022-11-07T03:05:43.718Z,9.30
2022-11-07T03:08:10.678Z,9.20
2022-11-07T03:10:37.663Z,9.20
2022-11-07T03:13:04.759Z,9.20
2022-11-07T03:15:31.721Z,9.20
2022-11-07T03:17:59.621Z,9.20
2022-11-07T03:20:26.647Z,9.20
2022-11-07T03:22:53.687Z,9.10
2022-11-07T03:25:20.602Z,9.20
2022-11-07T03:27:50.762Z,9.10
2022-11-07T03:30:18.070Z,9.10
2022-11-07T03:32:45.373Z,9.00
2022-11-07T03:35:13.194Z,9.00
2022-11-07T03:37:40.153Z,8.90
2022-11-07T03:40:07.956Z,8.80
2022-11-07T03:42:42.420Z,8.70
2022-11-07T03:45:11.353Z,8.70
2022-11-07T03:47:40.103Z,8.60
2022-11-07T03:50:09.586Z,8.60
2022-11-07T03:52:36.575Z,8.60
2022-11-07T03:55:03.794Z,8.60
2022-11-07T03:57:30.813Z,8.60
2022-11-07T03:59:57.805Z,8.60
2022-11-07T04:02:24.909Z,8.60
2022-11-07T04:04:52.135Z,8.60
2022-11-07T04:07:19.367Z,8.60
2022-11-07T04:09:46.687Z,8.50
2022-11-07T04:12:32.376Z,8.50
2022-11-07T04:15:17.887Z,8.50
2022-11-07T04:17:44.928Z,8.50
2022-11-07T04:20:13.310Z,8.50
2022-11-07T04:22:40.353Z,8.40
2022-11-07T04:25:08.061Z,8.50
2022-11-07T04:27:44.148Z,8.50
2022-11-07T04:30:20.054Z,8.50
2022-11-07T04:32:51.590Z,8.50
2022-11-07T04:35:19.758Z,8.50
2022-11-07T04:37:47.627Z,8.50
2022-11-07T04:40:16.322Z,8.50
2022-11-07T04:42:44.544Z,8.50
2022-11-07T04:45:12.837Z,8.50
2022-11-07T04:47:41.024Z,8.50
2022-11-07T04:50:11.096Z,8.50
2022-11-07T04:52:38.406Z,8.50
2022-11-07T04:55:07.694Z,8.40
2022-11-07T04:57:34.616Z,8.40
2022-11-07T05:00:02.599Z,8.40
2022-11-07T05:02:29.594Z,8.40
2022-11-07T05:04:56.534Z,8.40
2022-11-07T05:07:23.891Z,8.40
2022-11-07T05:09:51.664Z,8.40
2022-11-07T05:12:18.641Z,8.40
2022-11-07T05:14:45.641Z,8.40
2022-11-07T05:17:17.716Z,8.40
2022-11-07T05:19:44.772Z,8.40
2022-11-07T05:22:30.860Z,8.40
2022-11-07T05:24:58.102Z,8.40
2022-11-07T05:27:25.102Z,8.40
2022-11-07T05:29:52.494Z,8.40
2022-11-07T05:32:19.441Z,8.40
2022-11-07T05:34:46.540Z,8.40
2022-11-07T05:37:13.876Z,8.40
2022-11-07T05:39:40.808Z,8.30
2022-11-07T05:42:08.560Z,8.30
2022-11-07T05:44:35.510Z,8.30
2022-11-07T05:47:02.522Z,8.30
2022-11-07T05:49:29.445Z,8.20
2022-11-07T05:51:57.349Z,8.20
2022-11-07T05:54:24.795Z,8.20
2022-11-07T05:56:56.400Z,8.20
2022-11-07T05:59:23.586Z,8.30
2022-11-07T06:01:51.499Z,8.30
2022-11-07T06:04:18.648Z,8.30
2022-11-07T06:06:45.953Z,8.30
2022-11-07T06:09:12.867Z,8.40
2022-11-07T06:11:39.975Z,8.40
2022-11-07T06:14:06.962Z,8.40
2022-11-07T06:16:33.978Z,8.40
2022-11-07T06:19:00.909Z,8.50
2022-11-07T06:21:27.950Z,8.50
2022-11-07T06:23:54.921Z,8.50
2022-11-07T06:26:21.835Z,8.50
2022-11-07T06:28:48.787Z,8.60
2022-11-07T06:31:16.972Z,8.50
2022-11-07T06:33:44.597Z,8.50
2022-11-07T06:36:12.852Z,8.50
2022-11-07T06:38:40.323Z,8.50
2022-11-07T06:41:13.254Z,8.60
2022-11-07T06:43:40.859Z,8.50
2022-11-07T06:46:11.690Z,8.60
2022-11-07T06:48:39.634Z,8.70
2022-11-07T06:51:07.682Z,9.00
2022-11-07T06:53:34.740Z,10.00
2022-11-07T06:56:04.387Z,11.40
2022-11-07T06:58:31.626Z,12.80
2022-11-07T07:01:08.606Z,14.20
2022-11-07T07:03:35.988Z,15.50
2022-11-07T07:06:05.069Z,16.50
2022-11-07T07:08:33.174Z,17.40
2022-11-07T07:11:05.093Z,18.20
2022-11-07T07:13:32.354Z,18.90
2022-11-07T07:15:59.876Z,19.40
2022-11-07T07:18:27.461Z,19.90
2022-11-07T07:21:14.831Z,20.40
2022-11-07T07:23:42.491Z,20.70
2022-11-07T07:26:14.962Z,20.80
2022-11-07T07:28:42.745Z,20.90
2022-11-07T07:31:15.807Z,21.00
2022-11-07T07:33:43.867Z,21.00
2022-11-07T07:36:14.284Z,20.90
2022-11-07T07:38:44.899Z,20.70
2022-11-07T07:41:12.056Z,20.40
2022-11-07T07:43:39.151Z,20.20
2022-11-07T07:46:07.813Z,19.60
2022-11-07T07:48:35.381Z,19.10
2022-11-07T07:51:02.427Z,18.80
2022-11-07T07:53:29.503Z,18.60
2022-11-07T07:55:58.352Z,18.40
2022-11-07T07:58:27.132Z,18.40
2022-11-07T08:00:58.364Z,18.40
2022-11-07T08:03:29.303Z,18.50
2022-11-07T08:06:02.608Z,18.70
2022-11-07T08:08:32.643Z,18.90
2022-11-07T08:11:04.686Z,18.90
2022-11-07T08:13:31.919Z,19.20
2022-11-07T08:15:58.867Z,19.50
2022-11-07T08:18:25.936Z,19.80
2022-11-07T08:20:55.122Z,20.20
2022-11-07T08:23:23.784Z,20.70
2022-11-07T08:25:52.949Z,21.20
2022-11-07T08:28:20.890Z,21.70
2022-11-07T08:30:54.666Z,22.10
2022-11-07T08:33:21.846Z,22.40
2022-11-07T08:35:49.127Z,23.00
2022-11-07T08:38:16.023Z,23.70
2022-11-07T08:40:42.830Z,24.20
2022-11-07T08:43:09.727Z,24.80
2022-11-07T08:45:36.640Z,25.50
2022-11-07T08:48:03.701Z,26.20
2022-11-07T08:50:31.628Z,27.00
2022-11-07T08:53:14.925Z,27.80
2022-11-07T08:55:41.887Z,28.10
2022-11-07T08:58:09.094Z,28.30
2022-11-07T09:00:36.562Z,28.50
2022-11-07T09:05:51.871Z,29.20
2022-11-07T09:08:19.401Z,29.30
2022-11-07T09:10:46.346Z,29.30
2022-11-07T09:13:15.056Z,29.50
2022-11-07T09:15:47.715Z,29.70
2022-11-07T09:18:16.708Z,29.60
2022-11-07T09:20:43.549Z,29.70
2022-11-07T09:23:10.512Z,29.80
2022-11-07T09:25:37.401Z,29.90
2022-11-07T09:28:04.508Z,30.10
2022-11-07T09:30:31.456Z,30.30
2022-11-07T09:32:58.606Z,30.30
2022-11-07T09:35:25.517Z,30.40
2022-11-07T09:37:52.489Z,30.40
2022-11-07T09:40:19.320Z,30.40
2022-11-07T09:42:56.910Z,30.50
2022-11-07T09:45:23.803Z,30.90
2022-11-07T09:47:57.741Z,31.10
2022-11-07T09:50:30.087Z,31.40
2022-11-07T09:53:22.400Z,31.20
2022-11-07T09:55:59.352Z,31.00
2022-11-07T09:58:41.854Z,31.10
2022-11-07T10:01:17.961Z,31.10
2022-11-07T10:04:10.254Z,30.90
2022-11-07T10:06:34.161Z,30.50
2022-11-07T10:09:00.907Z,29.80
2022-11-07T10:11:46.491Z,29.30
2022-11-07T10:14:19.246Z,28.80
2022-11-07T10:16:50.656Z,28.60
2022-11-07T10:19:32.670Z,28.70
2022-11-07T10:22:16.652Z,28.90
2022-11-07T10:24:43.435Z,29.20
2022-11-07T10:27:11.456Z,29.20
2022-11-07T10:29:47.830Z,29.40
2022-11-07T10:32:17.539Z,29.80
2022-11-07T10:34:51.599Z,30.20
2022-11-07T10:37:21.250Z,30.40
2022-11-07T10:39:48.065Z,30.30
2022-11-07T10:42:19.590Z,30.20
2022-11-07T10:44:46.916Z,30.40
2022-11-07T10:47:21.601Z,30.40
2022-11-07T10:49:54.415Z,30.30
2022-11-07T10:52:21.287Z,30.00
2022-11-07T10:54:48.277Z,30.00
2022-11-07T10:57:19.382Z,29.70
2022-11-07T10:59:46.162Z,29.20
2022-11-07T11:02:36.119Z,29.00
2022-11-07T11:05:03.866Z,29.20
2022-11-07T11:07:35.334Z,29.20
2022-11-07T11:10:02.931Z,29.00
2022-11-07T11:12:34.824Z,29.10
2022-11-07T11:15:12.314Z,29.00
2022-11-07T11:17:39.446Z,28.80
2022-11-07T11:20:07.215Z,28.60
2022-11-07T11:22:39.882Z,28.60
2022-11-07T11:25:19.614Z,28.90
2022-11-07T11:27:51.628Z,28.70
2022-11-07T11:30:19.697Z,28.50
2022-11-07T11:32:52.126Z,28.50
2022-11-07T11:35:28.129Z,28.30
2022-11-07T11:38:04.293Z,27.70
2022-11-07T11:40:35.933Z,27.30
2022-11-07T11:43:11.904Z,27.30
2022-11-07T11:46:00.407Z,27.50
2022-11-07T11:48:30.316Z,27.60
2022-11-07T11:51:00.219Z,27.50
2022-11-07T11:53:27.773Z,27.70
2022-11-07T11:56:01.193Z,27.70
2022-11-07T11:58:28.012Z,27.80
2022-11-07T12:01:03.357Z,28.00
2022-11-07T12:03:39.189Z,28.20
2022-11-07T12:06:16.196Z,28.10
2022-11-07T12:08:51.641Z,28.10
2022-11-07T12:11:38.295Z,28.10
2022-11-07T12:14:13.943Z,27.80
2022-11-07T12:17:03.254Z,27.70
2022-11-07T12:19:39.279Z,27.90
2022-11-07T12:22:25.069Z,28.10
2022-11-07T12:24:54.666Z,28.20
2022-11-07T12:27:33.453Z,28.30
2022-11-07T12:30:11.115Z,28.20
2022-11-07T12:32:37.972Z,28.00
2022-11-07T12:35:04.811Z,28.00
2022-11-07T12:37:50.334Z,27.70
2022-11-07T12:40:27.729Z,27.30
2022-11-07T12:43:03.741Z,27.30
2022-11-07T12:45:39.602Z,27.30
2022-11-07T12:48:13.275Z,27.20
2022-11-07T12:50:46.392Z,26.90
2022-11-07T12:53:22.064Z,26.80
2022-11-07T12:55:51.401Z,26.80
2022-11-07T12:58:21.187Z,26.90
2022-11-07T13:00:48.760Z,26.90
2022-11-07T13:03:24.624Z,26.80
2022-11-07T13:05:51.460Z,26.80
2022-11-07T13:08:34.792Z,26.90
2022-11-07T13:11:05.160Z,26.90
2022-11-07T13:13:32.139Z,26.70
2022-11-07T13:16:18.917Z,26.30
2022-11-07T13:18:45.756Z,25.80
2022-11-07T13:21:12.600Z,25.70
2022-11-07T13:23:40.454Z,25.80
2022-11-07T13:26:26.304Z,25.70
2022-11-07T13:29:01.679Z,25.20
2022-11-07T13:31:34.267Z,24.80
2022-11-07T13:34:19.066Z,24.30
2022-11-07T13:36:47.647Z,23.70
2022-11-07T13:39:14.675Z,23.20
2022-11-07T13:41:44.482Z,22.70
2022-11-07T13:44:18.294Z,22.50
2022-11-07T13:46:47.592Z,22.50
2022-11-07T13:49:28.151Z,22.80
2022-11-07T13:51:58.439Z,23.30
2022-11-07T13:54:40.583Z,23.70
2022-11-07T13:57:16.373Z,23.90
2022-11-07T13:59:43.179Z,24.00
2022-11-07T14:02:25.124Z,24.10
2022-11-07T14:05:15.138Z,24.20
2022-11-07T14:07:46.353Z,24.00
2022-11-07T14:10:25.016Z,23.40
2022-11-07T14:12:53.435Z,23.00
2022-11-07T14:15:20.743Z,22.80
2022-11-07T14:17:47.955Z,22.60
2022-11-07T14:20:19.806Z,22.20
2022-11-07T14:22:56.117Z,21.80
2022-11-07T14:25:29.277Z,21.40
2022-11-07T14:27:56.653Z,21.20
2022-11-07T14:30:24.462Z,21.20
2022-11-07T14:32:55.810Z,21.70
2022-11-07T14:35:27.790Z,22.10
2022-11-07T14:37:55.687Z,22.10
2022-11-07T14:40:22.558Z,21.90
2022-11-07T14:42:50.094Z,21.50
2022-11-07T14:45:27.866Z,20.90
2022-11-07T14:48:06.042Z,20.30
2022-11-07T14:50:33.819Z,19.70
2022-11-07T14:53:09.129Z,19.20
2022-11-07T14:56:08.282Z,18.70
2022-11-07T14:58:35.785Z,18.30
2022-11-07T15:01:08.724Z,17.90
2022-11-07T15:03:38.554Z,17.60
2022-11-07T15:06:05.913Z,17.30
2022-11-07T15:08:34.368Z,17.00
2022-11-07T15:11:21.538Z,16.90
2022-11-07T15:13:48.862Z,16.70
2022-11-07T15:16:18.666Z,16.50
2022-11-07T15:18:48.861Z,16.40
2022-11-07T15:21:35.565Z,16.20
2022-11-07T15:24:25.222Z,16.10
2022-11-07T15:27:00.552Z,15.90
2022-11-07T15:29:40.320Z,15.70
2022-11-07T15:32:19.897Z,15.40
2022-11-07T15:35:07.885Z,15.20
2022-11-07T15:37:37.385Z,15.10
2022-11-07T15:40:15.212Z,14.90
2022-11-07T15:42:42.176Z,14.80
2022-11-07T15:45:12.453Z,14.70
2022-11-07T15:47:39.566Z,14.70
2022-11-07T15:50:32.976Z,14.60
2022-11-07T15:52:59.957Z,14.60
2022-11-07T15:55:26.954Z,14.40
2022-11-07T15:57:54.635Z,14.40
2022-11-07T16:00:24.537Z,14.30
2022-11-07T16:02:52.120Z,14.30
2022-11-07T16:05:19.277Z,14.20
2022-11-07T16:07:46.720Z,14.10
2022-11-07T16:10:18.379Z,14.10
2022-11-07T16:12:45.303Z,14.00
2022-11-07T16:15:17.285Z,13.90
2022-11-07T16:17:44.828Z,13.90
2022-11-07T16:20:23.493Z,13.80
2022-11-07T16:22:51.479Z,13.80
2022-11-07T16:25:22.429Z,13.70
2022-11-07T16:28:00.364Z,13.60
2022-11-07T16:30:28.106Z,13.60
2022-11-07T16:32:55.371Z,13.50
2022-11-07T16:35:23.164Z,13.40
2022-11-07T16:37:50.141Z,13.30
2022-11-07T16:40:19.556Z,13.30
2022-11-07T16:42:47.512Z,13.20
2022-11-07T16:45:17.680Z,13.20
2022-11-07T16:47:45.129Z,13.10
2022-11-07T16:50:16.976Z,13.10
2022-11-07T16:52:43.933Z,13.00
2022-11-07T16:55:16.116Z,13.00
2022-11-07T16:57:43.574Z,12.90
2022-11-07T17:00:22.224Z,12.80
2022-11-07T17:02:49.818Z,12.80
2022-11-07T17:05:16.906Z,12.80
2022-11-07T17:07:43.895Z,12.70
2022-11-07T17:10:16.671Z,12.70
2022-11-07T17:12:43.582Z,12.70
2022-11-07T17:15:11.020Z,12.60
2022-11-07T17:17:37.990Z,12.60
2022-11-07T17:20:06.320Z,12.60
2022-11-07T17:22:33.238Z,12.60
2022-11-07T17:25:00.190Z,12.50
2022-11-07T17:27:28.274Z,12.50
2022-11-07T17:29:55.569Z,12.40
2022-11-07T17:32:22.611Z,12.40
2022-11-07T17:35:04.738Z,12.40
2022-11-07T17:37:37.201Z,12.40
2022-11-07T17:40:05.915Z,12.30
2022-11-07T17:42:37.844Z,12.30
2022-11-07T17:45:06.488Z,12.20
2022-11-07T17:47:34.538Z,12.20
2022-11-07T17:50:01.960Z,12.10
2022-11-07T17:52:30.401Z,12.10
2022-11-07T17:54:57.465Z,12.00
2022-11-07T17:57:24.418Z,11.90
2022-11-07T17:59:51.777Z,11.90
2022-11-07T18:02:20.265Z,11.80
2022-11-07T18:04:47.346Z,11.80
2022-11-07T18:07:14.342Z,11.80
2022-11-07T18:09:41.738Z,11.70
2022-11-07T18:12:09.881Z,11.70
2022-11-07T18:14:38.114Z,11.70
2022-11-07T18:17:05.389Z,11.70
2022-11-07T18:19:32.541Z,11.60
2022-11-07T18:21:59.608Z,11.60
2022-11-07T18:24:26.521Z,11.60
2022-11-07T18:26:53.593Z,11.60
2022-11-07T18:29:20.520Z,11.50
2022-11-07T18:31:49.715Z,11.50
2022-11-07T18:34:17.310Z,11.50
2022-11-07T18:36:45.598Z,11.40
2022-11-07T18:39:18.494Z,11.40
2022-11-07T18:41:46.261Z,11.40
2022-11-07T18:44:13.799Z,11.40
2022-11-07T18:46:41.372Z,11.40
2022-11-07T18:49:08.483Z,11.30
2022-11-07T18:51:35.849Z,11.40
2022-11-07T18:54:04.686Z,11.30
2022-11-07T18:56:31.692Z,11.30
2022-11-07T18:58:59.017Z,11.30
2022-11-07T19:01:29.390Z,11.30
2022-11-07T19:03:58.037Z,11.30
2022-11-07T19:06:26.775Z,11.30
2022-11-07T19:08:54.475Z,11.30
2022-11-07T19:11:29.673Z,11.20
2022-11-07T19:14:01.039Z,11.20
2022-11-07T19:16:29.955Z,11.20
2022-11-07T19:18:59.127Z,11.20
2022-11-07T19:21:26.066Z,11.20
2022-11-07T19:23:53.002Z,11.20
2022-11-07T19:26:20.152Z,11.10
2022-11-07T19:28:47.894Z,11.10
2022-11-07T19:31:16.051Z,11.10
2022-11-07T19:33:44.255Z,11.10
2022-11-07T19:36:21.628Z,11.10
2022-11-07T19:38:49.550Z,11.10
2022-11-07T19:41:17.667Z,11.10
2022-11-07T19:43:48.508Z,11.10
2022-11-07T19:46:21.164Z,11.00
2022-11-07T19:48:49.658Z,11.10
2022-11-07T19:51:22.147Z,11.00
2022-11-07T19:53:58.234Z,11.00
2022-11-07T19:56:27.719Z,11.00
2022-11-07T19:58:55.402Z,11.00
2022-11-07T20:01:25.939Z,10.90
2022-11-07T20:03:54.363Z,10.90
2022-11-07T20:06:30.497Z,10.90
2022-11-07T20:08:57.532Z,10.90
2022-11-07T20:11:25.790Z,10.90
2022-11-07T20:13:58.724Z,10.80
2022-11-07T20:16:27.365Z,10.80
2022-11-07T20:18:54.305Z,10.80
2022-11-07T20:21:22.969Z,10.70
2022-11-07T20:23:53.420Z,10.70
2022-11-07T20:26:22.860Z,10.70
2022-11-07T20:28:50.108Z,10.70
2022-11-07T20:31:20.566Z,10.70
2022-11-07T20:33:48.135Z,10.70
2022-11-07T20:36:17.031Z,10.70
2022-11-07T20:38:44.838Z,10.70
2022-11-07T20:41:13.212Z,10.70
2022-11-07T20:43:40.883Z,10.70
2022-11-07T20:46:11.303Z,10.60
2022-11-07T20:48:39.150Z,10.60
2022-11-07T20:51:17.589Z,10.60
2022-11-07T20:53:49.844Z,10.60
2022-11-07T20:56:18.720Z,10.60
2022-11-07T20:58:46.653Z,10.60
2022-11-07T21:01:16.719Z,10.60
2022-11-07T21:03:44.585Z,10.50
2022-11-07T21:06:11.718Z,10.50
2022-11-07T21:08:39.862Z,10.50
2022-11-07T21:11:07.395Z,10.40
2022-11-07T21:13:35.009Z,10.40
2022-11-07T21:16:02.276Z,10.40
2022-11-07T21:18:29.261Z,10.40
2022-11-07T21:21:08.883Z,10.40
2022-11-07T21:23:37.474Z,10.30
2022-11-07T21:26:09.396Z,10.30
2022-11-07T21:28:40.582Z,10.30
2022-11-07T21:31:11.109Z,10.20
2022-11-07T21:33:39.065Z,10.20
2022-11-07T21:36:10.753Z,10.20
2022-11-07T21:38:38.507Z,10.20
2022-11-07T21:41:06.677Z,10.20
2022-11-07T21:43:33.807Z,10.20
2022-11-07T21:46:10.557Z,10.20
2022-11-07T21:48:37.700Z,10.10
2022-11-07T21:51:09.124Z,10.10
2022-11-07T21:53:37.920Z,10.10
2022-11-07T21:56:06.359Z,10.10
2022-11-07T21:58:33.554Z,10.10
2022-11-07T22:01:05.369Z,10.10
2022-11-07T22:04:03.896Z,10.20
2022-11-07T22:06:21.138Z,10.20
2022-11-07T22:08:49.567Z,10.20
2022-11-07T22:11:17.555Z,10.20
2022-11-07T22:13:44.907Z,10.20
2022-11-07T22:16:14.467Z,10.20
2022-11-07T22:18:42.133Z,10.20
2022-11-07T22:21:12.626Z,10.20
2022-11-07T22:23:41.077Z,10.20
2022-11-07T22:26:13.542Z,10.20
2022-11-07T22:28:45.565Z,10.20
2022-11-07T22:31:20.739Z,10.20
2022-11-07T22:33:48.027Z,10.20
2022-11-07T22:36:15.597Z,10.10
2022-11-07T22:38:42.592Z,10.00
2022-11-07T22:41:14.957Z,10.00
2022-11-07T22:43:42.397Z,10.00
2022-11-07T22:46:12.286Z,10.00
2022-11-07T22:48:39.992Z,10.00
2022-11-07T22:51:09.555Z,10.00
2022-11-07T22:53:37.075Z,10.00
2022-11-07T22:56:12.670Z,9.90
2022-11-07T22:58:40.330Z,9.90
2022-11-07T23:01:14.395Z,9.90
2022-11-07T23:03:41.370Z,9.90
2022-11-07T23:06:08.756Z,9.90
2022-11-07T23:08:36.199Z,9.90
2022-11-07T23:11:44.893Z,9.90
2022-11-07T23:14:01.161Z,9.90
2022-11-07T23:16:32.768Z,9.90
2022-11-07T23:19:02.002Z,9.90
2022-11-07T23:21:29.970Z,9.90
2022-11-07T23:23:58.314Z,9.90
2022-11-07T23:26:26.902Z,10.00
2022-11-07T23:28:53.818Z,9.90
2022-11-07T23:31:20.752Z,9.90
2022-11-07T23:33:47.643Z,9.90
2022-11-07T23:36:16.299Z,9.90
2022-11-07T23:38:44.137Z,10.00
2022-11-07T23:41:15.808Z,10.00
2022-11-07T23:43:43.054Z,10.00
2022-11-07T23:46:32.004Z,10.00
2022-11-07T23:49:18.189Z,10.10
2022-11-07T23:51:45.830Z,10.10
2022-11-07T23:54:31.163Z,10.10
2022-11-07T23:56:58.106Z,10.20
2022-11-07T23:59:44.296Z,10.20
